sensor_id;sensor_type;location;lat;lon;timestamp;P1;durP1;ratioP1;P2;durP2;ratioP2
20118;SDS011;10220;42.716;23.306;2023-05-14T00:00:43;3.65;;;1.88;;
20118;SDS011;10220;42.716;23.306;2023-05-14T00:03:09;1.92;;;1.50;;
20118;SDS011;10220;42.716;23.306;2023-05-14T00:05:34;4.90;;;2.42;;
20118;SDS011;10220;42.716;23.306;2023-05-14T00:08:00;2.33;;;1.75;;
20118;SDS011;10220;42.716;23.306;2023-05-14T00:10:25;1.85;;;1.55;;
20118;SDS011;10220;42.716;23.306;2023-05-14T00:12:51;1.27;;;1.15;;
20118;SDS011;10220;42.716;23.306;2023-05-14T00:15:16;1.52;;;1.42;;
20118;SDS011;10220;42.716;23.306;2023-05-14T00:17:42;1.38;;;1.30;;
20118;SDS011;10220;42.716;23.306;2023-05-14T00:20:10;5.15;;;2.20;;
20118;SDS011;10220;42.716;23.306;2023-05-14T00:22:36;3.83;;;1.67;;
20118;SDS011;10220;42.716;23.306;2023-05-14T00:25:02;5.55;;;1.83;;
20118;SDS011;10220;42.716;23.306;2023-05-14T00:27:28;12.52;;;5.85;;
20118;SDS011;10220;42.716;23.306;2023-05-14T00:29:53;1.48;;;1.38;;
20118;SDS011;10220;42.716;23.306;2023-05-14T00:32:19;2.13;;;1.30;;
20118;SDS011;10220;42.716;23.306;2023-05-14T00:34:48;2.40;;;1.58;;
20118;SDS011;10220;42.716;23.306;2023-05-14T00:37:13;2.88;;;1.30;;
20118;SDS011;10220;42.716;23.306;2023-05-14T00:39:39;2.40;;;1.55;;
20118;SDS011;10220;42.716;23.306;2023-05-14T00:42:04;2.72;;;2.03;;
20118;SDS011;10220;42.716;23.306;2023-05-14T00:44:30;3.03;;;1.73;;
20118;SDS011;10220;42.716;23.306;2023-05-14T00:46:55;1.35;;;1.25;;
20118;SDS011;10220;42.716;23.306;2023-05-14T00:49:21;6.55;;;3.08;;
20118;SDS011;10220;42.716;23.306;2023-05-14T00:51:47;2.08;;;1.42;;
20118;SDS011;10220;42.716;23.306;2023-05-14T00:54:13;1.77;;;1.52;;
20118;SDS011;10220;42.716;23.306;2023-05-14T00:56:46;1.65;;;1.20;;
20118;SDS011;10220;42.716;23.306;2023-05-14T00:59:12;2.08;;;1.88;;
20118;SDS011;10220;42.716;23.306;2023-05-14T01:01:38;3.72;;;1.35;;
20118;SDS011;10220;42.716;23.306;2023-05-14T01:04:05;1.13;;;0.90;;
20118;SDS011;10220;42.716;23.306;2023-05-14T01:09:28;1.65;;;1.55;;
20118;SDS011;10220;42.716;23.306;2023-05-14T01:17:14;1.38;;;1.08;;
20118;SDS011;10220;42.716;23.306;2023-05-14T01:19:44;1.70;;;1.35;;
20118;SDS011;10220;42.716;23.306;2023-05-14T01:22:11;3.40;;;1.48;;
20118;SDS011;10220;42.716;23.306;2023-05-14T01:24:37;1.35;;;1.25;;
20118;SDS011;10220;42.716;23.306;2023-05-14T01:27:08;5.80;;;1.38;;
20118;SDS011;10220;42.716;23.306;2023-05-14T01:29:42;3.22;;;1.35;;
20118;SDS011;10220;42.716;23.306;2023-05-14T01:32:09;0.98;;;0.80;;
20118;SDS011;10220;42.716;23.306;2023-05-14T01:34:36;1.17;;;0.90;;
20118;SDS011;10220;42.716;23.306;2023-05-14T01:37:03;2.83;;;1.48;;
20118;SDS011;10220;42.716;23.306;2023-05-14T01:39:35;2.15;;;1.33;;
20118;SDS011;10220;42.716;23.306;2023-05-14T01:42:01;1.35;;;1.17;;
20118;SDS011;10220;42.716;23.306;2023-05-14T01:44:28;2.53;;;1.52;;
20118;SDS011;10220;42.716;23.306;2023-05-14T01:46:55;1.80;;;1.40;;
20118;SDS011;10220;42.716;23.306;2023-05-14T01:49:20;0.90;;;0.85;;
20118;SDS011;10220;42.716;23.306;2023-05-14T01:51:46;1.27;;;1.17;;
20118;SDS011;10220;42.716;23.306;2023-05-14T01:54:12;4.03;;;1.15;;
20118;SDS011;10220;42.716;23.306;2023-05-14T01:56:37;1.85;;;1.13;;
20118;SDS011;10220;42.716;23.306;2023-05-14T01:59:03;1.73;;;1.27;;
20118;SDS011;10220;42.716;23.306;2023-05-14T02:01:28;3.53;;;1.23;;
20118;SDS011;10220;42.716;23.306;2023-05-14T02:03:53;1.65;;;1.15;;
20118;SDS011;10220;42.716;23.306;2023-05-14T02:06:19;1.30;;;1.20;;
20118;SDS011;10220;42.716;23.306;2023-05-14T02:08:47;1.48;;;1.20;;
20118;SDS011;10220;42.716;23.306;2023-05-14T02:11:12;0.70;;;0.70;;
20118;SDS011;10220;42.716;23.306;2023-05-14T02:13:38;1.00;;;0.90;;
20118;SDS011;10220;42.716;23.306;2023-05-14T02:16:03;1.38;;;0.90;;
20118;SDS011;10220;42.716;23.306;2023-05-14T02:18:29;1.83;;;1.17;;
20118;SDS011;10220;42.716;23.306;2023-05-14T02:20:55;3.72;;;1.23;;
20118;SDS011;10220;42.716;23.306;2023-05-14T02:23:21;0.80;;;0.80;;
20118;SDS011;10220;42.716;23.306;2023-05-14T02:25:46;2.30;;;1.17;;
20118;SDS011;10220;42.716;23.306;2023-05-14T02:28:12;1.65;;;0.90;;
20118;SDS011;10220;42.716;23.306;2023-05-14T02:30:37;1.90;;;1.35;;
20118;SDS011;10220;42.716;23.306;2023-05-14T02:33:03;0.98;;;0.90;;
20118;SDS011;10220;42.716;23.306;2023-05-14T02:35:28;1.20;;;1.10;;
20118;SDS011;10220;42.716;23.306;2023-05-14T02:37:54;4.15;;;2.08;;
20118;SDS011;10220;42.716;23.306;2023-05-14T02:40:20;2.28;;;1.27;;
20118;SDS011;10220;42.716;23.306;2023-05-14T02:42:45;1.67;;;1.02;;
20118;SDS011;10220;42.716;23.306;2023-05-14T02:45:10;1.40;;;1.10;;
20118;SDS011;10220;42.716;23.306;2023-05-14T02:47:36;1.45;;;1.13;;
20118;SDS011;10220;42.716;23.306;2023-05-14T02:50:01;0.82;;;0.77;;
20118;SDS011;10220;42.716;23.306;2023-05-14T02:52:28;1.50;;;1.00;;
20118;SDS011;10220;42.716;23.306;2023-05-14T02:54:54;3.05;;;1.40;;
20118;SDS011;10220;42.716;23.306;2023-05-14T02:57:19;1.25;;;1.15;;
20118;SDS011;10220;42.716;23.306;2023-05-14T02:59:45;1.63;;;1.30;;
20118;SDS011;10220;42.716;23.306;2023-05-14T03:02:10;1.45;;;0.82;;
20118;SDS011;10220;42.716;23.306;2023-05-14T03:04:38;1.88;;;1.40;;
20118;SDS011;10220;42.716;23.306;2023-05-14T03:07:04;2.67;;;1.42;;
20118;SDS011;10220;42.716;23.306;2023-05-14T03:09:29;1.80;;;1.35;;
20118;SDS011;10220;42.716;23.306;2023-05-14T03:11:55;1.15;;;1.02;;
20118;SDS011;10220;42.716;23.306;2023-05-14T03:14:20;1.30;;;0.95;;
20118;SDS011;10220;42.716;23.306;2023-05-14T03:16:45;6.20;;;1.00;;
20118;SDS011;10220;42.716;23.306;2023-05-14T03:19:11;1.17;;;1.00;;
20118;SDS011;10220;42.716;23.306;2023-05-14T03:21:36;1.85;;;0.95;;
20118;SDS011;10220;42.716;23.306;2023-05-14T03:24:02;0.95;;;0.95;;
20118;SDS011;10220;42.716;23.306;2023-05-14T03:26:30;1.65;;;1.17;;
20118;SDS011;10220;42.716;23.306;2023-05-14T03:29:04;1.65;;;1.20;;
20118;SDS011;10220;42.716;23.306;2023-05-14T03:31:30;1.10;;;1.00;;
20118;SDS011;10220;42.716;23.306;2023-05-14T03:33:58;2.20;;;1.02;;
20118;SDS011;10220;42.716;23.306;2023-05-14T03:36:24;1.08;;;0.98;;
20118;SDS011;10220;42.716;23.306;2023-05-14T03:38:50;2.05;;;1.25;;
20118;SDS011;10220;42.716;23.306;2023-05-14T03:41:15;3.97;;;1.70;;
20118;SDS011;10220;42.716;23.306;2023-05-14T03:43:44;1.60;;;1.02;;
20118;SDS011;10220;42.716;23.306;2023-05-14T03:46:09;4.63;;;0.95;;
20118;SDS011;10220;42.716;23.306;2023-05-14T03:48:37;4.55;;;1.80;;
20118;SDS011;10220;42.716;23.306;2023-05-14T03:51:03;1.85;;;1.20;;
20118;SDS011;10220;42.716;23.306;2023-05-14T03:53:28;2.38;;;1.33;;
20118;SDS011;10220;42.716;23.306;2023-05-14T03:55:57;3.55;;;1.67;;
20118;SDS011;10220;42.716;23.306;2023-05-14T03:58:22;3.38;;;1.52;;
20118;SDS011;10220;42.716;23.306;2023-05-14T04:00:53;1.10;;;0.90;;
20118;SDS011;10220;42.716;23.306;2023-05-14T04:03:19;2.10;;;1.33;;
20118;SDS011;10220;42.716;23.306;2023-05-14T04:05:44;1.55;;;1.17;;
20118;SDS011;10220;42.716;23.306;2023-05-14T04:08:13;1.65;;;1.30;;
20118;SDS011;10220;42.716;23.306;2023-05-14T04:10:39;1.38;;;1.25;;
20118;SDS011;10220;42.716;23.306;2023-05-14T04:13:07;1.23;;;1.13;;
20118;SDS011;10220;42.716;23.306;2023-05-14T04:15:39;1.77;;;1.42;;
20118;SDS011;10220;42.716;23.306;2023-05-14T04:18:05;2.45;;;1.38;;
20118;SDS011;10220;42.716;23.306;2023-05-14T04:51:22;1.20;;;1.10;;
20118;SDS011;10220;42.716;23.306;2023-05-14T04:54:00;1.77;;;0.85;;
20118;SDS011;10220;42.716;23.306;2023-05-14T04:56:33;2.28;;;1.40;;
20118;SDS011;10220;42.716;23.306;2023-05-14T04:58:59;1.95;;;1.70;;
20118;SDS011;10220;42.716;23.306;2023-05-14T05:01:25;1.92;;;1.60;;
20118;SDS011;10220;42.716;23.306;2023-05-14T05:04:02;4.00;;;1.50;;
20118;SDS011;10220;42.716;23.306;2023-05-14T05:06:34;1.20;;;1.00;;
20118;SDS011;10220;42.716;23.306;2023-05-14T05:09:28;3.20;;;1.80;;
20118;SDS011;10220;42.716;23.306;2023-05-14T05:12:04;5.40;;;1.65;;
20118;SDS011;10220;42.716;23.306;2023-05-14T05:14:50;1.67;;;1.35;;
20118;SDS011;10220;42.716;23.306;2023-05-14T05:17:15;1.90;;;1.30;;
20118;SDS011;10220;42.716;23.306;2023-05-14T05:23:10;1.05;;;0.98;;
20118;SDS011;10220;42.716;23.306;2023-05-14T05:25:36;5.68;;;1.75;;
20118;SDS011;10220;42.716;23.306;2023-05-14T05:28:01;1.48;;;1.13;;
20118;SDS011;10220;42.716;23.306;2023-05-14T05:30:27;1.58;;;1.40;;
20118;SDS011;10220;42.716;23.306;2023-05-14T05:32:54;5.82;;;1.80;;
20118;SDS011;10220;42.716;23.306;2023-05-14T05:35:20;4.18;;;1.25;;
20118;SDS011;10220;42.716;23.306;2023-05-14T05:37:46;4.15;;;1.58;;
20118;SDS011;10220;42.716;23.306;2023-05-14T05:40:11;1.38;;;1.10;;
20118;SDS011;10220;42.716;23.306;2023-05-14T05:42:38;1.73;;;1.52;;
20118;SDS011;10220;42.716;23.306;2023-05-14T05:45:04;2.15;;;1.55;;
20118;SDS011;10220;42.716;23.306;2023-05-14T05:47:30;3.72;;;2.33;;
20118;SDS011;10220;42.716;23.306;2023-05-14T05:49:56;7.05;;;2.25;;
20118;SDS011;10220;42.716;23.306;2023-05-14T05:52:21;6.47;;;1.88;;
20118;SDS011;10220;42.716;23.306;2023-05-14T05:54:47;2.70;;;1.75;;
20118;SDS011;10220;42.716;23.306;2023-05-14T05:57:12;2.85;;;2.08;;
20118;SDS011;10220;42.716;23.306;2023-05-14T05:59:38;2.10;;;1.90;;
20118;SDS011;10220;42.716;23.306;2023-05-14T06:02:03;3.75;;;2.20;;
20118;SDS011;10220;42.716;23.306;2023-05-14T06:04:29;2.08;;;1.73;;
20118;SDS011;10220;42.716;23.306;2023-05-14T06:06:54;2.53;;;1.58;;
20118;SDS011;10220;42.716;23.306;2023-05-14T06:09:19;6.03;;;2.50;;
20118;SDS011;10220;42.716;23.306;2023-05-14T06:11:45;3.97;;;1.88;;
20118;SDS011;10220;42.716;23.306;2023-05-14T06:14:11;2.28;;;1.70;;
20118;SDS011;10220;42.716;23.306;2023-05-14T06:16:36;1.88;;;1.75;;
20118;SDS011;10220;42.716;23.306;2023-05-14T06:19:01;2.28;;;1.80;;
20118;SDS011;10220;42.716;23.306;2023-05-14T06:21:27;3.35;;;1.80;;
20118;SDS011;10220;42.716;23.306;2023-05-14T06:23:52;1.92;;;1.17;;
20118;SDS011;10220;42.716;23.306;2023-05-14T06:26:18;4.07;;;1.98;;
20118;SDS011;10220;42.716;23.306;2023-05-14T06:28:43;2.33;;;1.48;;
20118;SDS011;10220;42.716;23.306;2023-05-14T06:31:08;2.35;;;1.80;;
20118;SDS011;10220;42.716;23.306;2023-05-14T06:33:34;5.30;;;2.80;;
20118;SDS011;10220;42.716;23.306;2023-05-14T06:36:02;2.67;;;2.28;;
20118;SDS011;10220;42.716;23.306;2023-05-14T06:38:29;2.90;;;2.30;;
20118;SDS011;10220;42.716;23.306;2023-05-14T06:40:54;4.13;;;2.63;;
20118;SDS011;10220;42.716;23.306;2023-05-14T06:43:20;4.22;;;2.53;;
20118;SDS011;10220;42.716;23.306;2023-05-14T06:45:51;3.78;;;2.33;;
20118;SDS011;10220;42.716;23.306;2023-05-14T06:48:17;3.58;;;2.30;;
20118;SDS011;10220;42.716;23.306;2023-05-14T06:50:43;4.43;;;2.97;;
20118;SDS011;10220;42.716;23.306;2023-05-14T06:53:09;4.88;;;2.72;;
20118;SDS011;10220;42.716;23.306;2023-05-14T06:55:35;4.97;;;2.95;;
20118;SDS011;10220;42.716;23.306;2023-05-14T06:58:00;3.55;;;3.13;;
20118;SDS011;10220;42.716;23.306;2023-05-14T07:00:26;7.57;;;3.70;;
20118;SDS011;10220;42.716;23.306;2023-05-14T07:02:52;4.47;;;2.97;;
20118;SDS011;10220;42.716;23.306;2023-05-14T07:05:17;4.22;;;3.78;;
20118;SDS011;10220;42.716;23.306;2023-05-14T07:07:43;5.63;;;3.40;;
20118;SDS011;10220;42.716;23.306;2023-05-14T07:10:09;4.90;;;3.75;;
20118;SDS011;10220;42.716;23.306;2023-05-14T07:12:34;4.93;;;3.20;;
20118;SDS011;10220;42.716;23.306;2023-05-14T07:15:00;4.72;;;3.55;;
20118;SDS011;10220;42.716;23.306;2023-05-14T07:17:25;5.43;;;3.38;;
20118;SDS011;10220;42.716;23.306;2023-05-14T07:19:50;4.00;;;2.85;;
20118;SDS011;10220;42.716;23.306;2023-05-14T07:22:16;3.97;;;2.63;;
20118;SDS011;10220;42.716;23.306;2023-05-14T07:24:41;3.08;;;2.75;;
20118;SDS011;10220;42.716;23.306;2023-05-14T07:27:07;3.67;;;2.67;;
20118;SDS011;10220;42.716;23.306;2023-05-14T07:29:33;3.20;;;2.45;;
20118;SDS011;10220;42.716;23.306;2023-05-14T07:31:59;3.75;;;2.60;;
20118;SDS011;10220;42.716;23.306;2023-05-14T07:34:25;4.35;;;2.17;;
20118;SDS011;10220;42.716;23.306;2023-05-14T07:36:50;5.00;;;2.63;;
20118;SDS011;10220;42.716;23.306;2023-05-14T07:39:16;4.28;;;1.90;;
20118;SDS011;10220;42.716;23.306;2023-05-14T07:41:42;3.83;;;2.45;;
20118;SDS011;10220;42.716;23.306;2023-05-14T07:44:07;4.53;;;2.13;;
20118;SDS011;10220;42.716;23.306;2023-05-14T07:46:33;5.38;;;3.50;;
20118;SDS011;10220;42.716;23.306;2023-05-14T07:48:58;3.47;;;2.75;;
20118;SDS011;10220;42.716;23.306;2023-05-14T07:51:23;3.53;;;3.22;;
20118;SDS011;10220;42.716;23.306;2023-05-14T07:53:52;3.92;;;2.65;;
20118;SDS011;10220;42.716;23.306;2023-05-14T07:56:21;8.35;;;4.07;;
20118;SDS011;10220;42.716;23.306;2023-05-14T07:58:46;4.50;;;3.08;;
20118;SDS011;10220;42.716;23.306;2023-05-14T08:01:12;5.03;;;3.15;;
20118;SDS011;10220;42.716;23.306;2023-05-14T08:03:37;3.47;;;2.45;;
20118;SDS011;10220;42.716;23.306;2023-05-14T08:06:03;3.55;;;2.58;;
20118;SDS011;10220;42.716;23.306;2023-05-14T08:08:29;4.28;;;2.80;;
20118;SDS011;10220;42.716;23.306;2023-05-14T08:10:54;7.07;;;3.00;;
20118;SDS011;10220;42.716;23.306;2023-05-14T08:13:20;4.10;;;2.55;;
20118;SDS011;10220;42.716;23.306;2023-05-14T08:15:45;2.63;;;2.42;;
20118;SDS011;10220;42.716;23.306;2023-05-14T08:18:20;4.03;;;2.50;;
20118;SDS011;10220;42.716;23.306;2023-05-14T08:20:54;2.85;;;1.80;;
20118;SDS011;10220;42.716;23.306;2023-05-14T08:23:22;3.40;;;2.28;;
20118;SDS011;10220;42.716;23.306;2023-05-14T08:25:51;4.35;;;2.63;;
20118;SDS011;10220;42.716;23.306;2023-05-14T08:28:17;3.72;;;2.17;;
20118;SDS011;10220;42.716;23.306;2023-05-14T08:30:42;2.92;;;2.70;;
20118;SDS011;10220;42.716;23.306;2023-05-14T08:33:08;3.13;;;2.17;;
20118;SDS011;10220;42.716;23.306;2023-05-14T08:35:33;2.35;;;1.98;;
20118;SDS011;10220;42.716;23.306;2023-05-14T08:37:58;4.13;;;2.80;;
20118;SDS011;10220;42.716;23.306;2023-05-14T08:40:24;7.70;;;2.70;;
20118;SDS011;10220;42.716;23.306;2023-05-14T08:42:50;3.45;;;2.47;;
20118;SDS011;10220;42.716;23.306;2023-05-14T08:45:19;2.47;;;2.28;;
20118;SDS011;10220;42.716;23.306;2023-05-14T08:47:49;3.53;;;2.63;;
20118;SDS011;10220;42.716;23.306;2023-05-14T08:50:16;4.22;;;2.65;;
20118;SDS011;10220;42.716;23.306;2023-05-14T08:52:42;3.45;;;2.70;;
20118;SDS011;10220;42.716;23.306;2023-05-14T08:55:08;5.43;;;2.85;;
20118;SDS011;10220;42.716;23.306;2023-05-14T08:57:36;2.75;;;2.33;;
20118;SDS011;10220;42.716;23.306;2023-05-14T09:00:02;2.85;;;2.22;;
20118;SDS011;10220;42.716;23.306;2023-05-14T09:02:40;2.38;;;1.77;;
20118;SDS011;10220;42.716;23.306;2023-05-14T09:05:08;3.40;;;2.33;;
20118;SDS011;10220;42.716;23.306;2023-05-14T09:07:34;3.10;;;1.95;;
20118;SDS011;10220;42.716;23.306;2023-05-14T09:10:00;3.35;;;2.22;;
20118;SDS011;10220;42.716;23.306;2023-05-14T09:12:26;3.30;;;2.75;;
20118;SDS011;10220;42.716;23.306;2023-05-14T09:14:51;3.22;;;2.92;;
20118;SDS011;10220;42.716;23.306;2023-05-14T09:17:17;4.53;;;2.75;;
20118;SDS011;10220;42.716;23.306;2023-05-14T09:19:44;3.10;;;2.70;;
20118;SDS011;10220;42.716;23.306;2023-05-14T09:22:13;2.95;;;2.60;;
20118;SDS011;10220;42.716;23.306;2023-05-14T09:24:43;4.97;;;2.72;;
20118;SDS011;10220;42.716;23.306;2023-05-14T09:27:18;4.30;;;3.17;;
20118;SDS011;10220;42.716;23.306;2023-05-14T09:29:44;3.50;;;2.35;;
20118;SDS011;10220;42.716;23.306;2023-05-14T09:32:10;2.78;;;2.25;;
20118;SDS011;10220;42.716;23.306;2023-05-14T09:34:35;2.90;;;2.15;;
20118;SDS011;10220;42.716;23.306;2023-05-14T09:37:04;3.40;;;2.67;;
20118;SDS011;10220;42.716;23.306;2023-05-14T09:39:31;3.72;;;2.83;;
20118;SDS011;10220;42.716;23.306;2023-05-14T09:41:58;3.63;;;2.85;;
20118;SDS011;10220;42.716;23.306;2023-05-14T09:44:24;3.65;;;2.78;;
20118;SDS011;10220;42.716;23.306;2023-05-14T09:46:49;3.30;;;2.80;;
20118;SDS011;10220;42.716;23.306;2023-05-14T09:49:16;2.45;;;1.67;;
20118;SDS011;10220;42.716;23.306;2023-05-14T09:51:42;4.65;;;3.67;;
20118;SDS011;10220;42.716;23.306;2023-05-14T09:54:08;3.28;;;2.92;;
20118;SDS011;10220;42.716;23.306;2023-05-14T09:56:34;5.00;;;3.40;;
20118;SDS011;10220;42.716;23.306;2023-05-14T09:59:01;2.97;;;2.60;;
20118;SDS011;10220;42.716;23.306;2023-05-14T10:01:27;3.15;;;2.03;;
20118;SDS011;10220;42.716;23.306;2023-05-14T10:03:54;2.88;;;2.53;;
20118;SDS011;10220;42.716;23.306;2023-05-14T10:06:27;2.53;;;2.28;;
20118;SDS011;10220;42.716;23.306;2023-05-14T10:08:56;3.28;;;2.90;;
20118;SDS011;10220;42.716;23.306;2023-05-14T10:11:26;4.28;;;2.47;;
20118;SDS011;10220;42.716;23.306;2023-05-14T10:13:58;3.92;;;2.67;;
20118;SDS011;10220;42.716;23.306;2023-05-14T10:18:51;4.25;;;2.72;;
20118;SDS011;10220;42.716;23.306;2023-05-14T10:21:19;3.20;;;2.47;;
20118;SDS011;10220;42.716;23.306;2023-05-14T10:23:46;5.15;;;3.40;;
20118;SDS011;10220;42.716;23.306;2023-05-14T10:26:13;6.25;;;4.47;;
20118;SDS011;10220;42.716;23.306;2023-05-14T10:28:39;4.88;;;3.67;;
20118;SDS011;10220;42.716;23.306;2023-05-14T10:31:04;7.10;;;3.47;;
20118;SDS011;10220;42.716;23.306;2023-05-14T10:33:39;4.88;;;2.45;;
20118;SDS011;10220;42.716;23.306;2023-05-14T10:36:12;4.75;;;2.92;;
20118;SDS011;10220;42.716;23.306;2023-05-14T10:38:37;3.83;;;3.03;;
20118;SDS011;10220;42.716;23.306;2023-05-14T10:41:09;4.38;;;2.60;;
20118;SDS011;10220;42.716;23.306;2023-05-14T10:43:36;3.25;;;2.75;;
20118;SDS011;10220;42.716;23.306;2023-05-14T10:46:03;3.58;;;3.20;;
20118;SDS011;10220;42.716;23.306;2023-05-14T10:48:29;4.18;;;3.33;;
20118;SDS011;10220;42.716;23.306;2023-05-14T10:50:55;4.30;;;3.17;;
20118;SDS011;10220;42.716;23.306;2023-05-14T10:53:31;4.00;;;2.50;;
20118;SDS011;10220;42.716;23.306;2023-05-14T10:56:10;5.20;;;3.13;;
20118;SDS011;10220;42.716;23.306;2023-05-14T10:58:45;3.45;;;2.22;;
20118;SDS011;10220;42.716;23.306;2023-05-14T11:01:14;3.50;;;3.15;;
20118;SDS011;10220;42.716;23.306;2023-05-14T11:03:40;2.55;;;2.30;;
20118;SDS011;10220;42.716;23.306;2023-05-14T11:06:11;4.18;;;3.03;;
20118;SDS011;10220;42.716;23.306;2023-05-14T11:08:39;3.60;;;2.95;;
20118;SDS011;10220;42.716;23.306;2023-05-14T11:11:05;4.85;;;4.28;;
20118;SDS011;10220;42.716;23.306;2023-05-14T11:13:32;4.60;;;3.65;;
20118;SDS011;10220;42.716;23.306;2023-05-14T11:15:59;3.60;;;3.00;;
20118;SDS011;10220;42.716;23.306;2023-05-14T11:18:26;4.85;;;4.05;;
20118;SDS011;10220;42.716;23.306;2023-05-14T11:20:52;3.65;;;2.83;;
20118;SDS011;10220;42.716;23.306;2023-05-14T11:23:20;4.93;;;3.97;;
20118;SDS011;10220;42.716;23.306;2023-05-14T11:25:47;4.18;;;3.30;;
20118;SDS011;10220;42.716;23.306;2023-05-14T11:28:12;5.00;;;3.75;;
20118;SDS011;10220;42.716;23.306;2023-05-14T11:30:38;4.53;;;4.13;;
20118;SDS011;10220;42.716;23.306;2023-05-14T11:33:05;4.47;;;3.88;;
20118;SDS011;10220;42.716;23.306;2023-05-14T11:35:31;4.53;;;3.40;;
20118;SDS011;10220;42.716;23.306;2023-05-14T11:37:56;4.97;;;3.63;;
20118;SDS011;10220;42.716;23.306;2023-05-14T11:40:21;4.32;;;3.67;;
20118;SDS011;10220;42.716;23.306;2023-05-14T11:42:49;5.32;;;4.07;;
20118;SDS011;10220;42.716;23.306;2023-05-14T11:45:23;4.68;;;3.30;;
20118;SDS011;10220;42.716;23.306;2023-05-14T11:47:51;4.22;;;3.55;;
20118;SDS011;10220;42.716;23.306;2023-05-14T11:50:17;4.53;;;3.25;;
20118;SDS011;10220;42.716;23.306;2023-05-14T11:52:43;4.13;;;3.70;;
20118;SDS011;10220;42.716;23.306;2023-05-14T11:55:12;4.70;;;3.50;;
20118;SDS011;10220;42.716;23.306;2023-05-14T11:57:37;4.53;;;3.25;;
20118;SDS011;10220;42.716;23.306;2023-05-14T12:00:03;6.28;;;3.70;;
20118;SDS011;10220;42.716;23.306;2023-05-14T12:02:33;4.97;;;3.22;;
20118;SDS011;10220;42.716;23.306;2023-05-14T12:04:58;4.35;;;3.92;;
20118;SDS011;10220;42.716;23.306;2023-05-14T12:07:27;4.80;;;3.20;;
20118;SDS011;10220;42.716;23.306;2023-05-14T12:09:53;4.97;;;3.70;;
20118;SDS011;10220;42.716;23.306;2023-05-14T12:12:20;5.25;;;3.80;;
20118;SDS011;10220;42.716;23.306;2023-05-14T12:14:46;4.57;;;3.10;;
20118;SDS011;10220;42.716;23.306;2023-05-14T12:17:13;5.20;;;3.20;;
20118;SDS011;10220;42.716;23.306;2023-05-14T12:19:41;4.95;;;3.53;;
20118;SDS011;10220;42.716;23.306;2023-05-14T12:22:07;3.55;;;3.05;;
20118;SDS011;10220;42.716;23.306;2023-05-14T12:24:34;5.72;;;3.35;;
20118;SDS011;10220;42.716;23.306;2023-05-14T12:27:00;4.97;;;3.13;;
20118;SDS011;10220;42.716;23.306;2023-05-14T12:29:29;3.90;;;3.22;;
20118;SDS011;10220;42.716;23.306;2023-05-14T12:31:56;6.85;;;3.60;;
20118;SDS011;10220;42.716;23.306;2023-05-14T12:34:38;4.93;;;4.10;;
20118;SDS011;10220;42.716;23.306;2023-05-14T12:37:04;4.18;;;3.10;;
20118;SDS011;10220;42.716;23.306;2023-05-14T12:39:31;5.63;;;3.95;;
20118;SDS011;10220;42.716;23.306;2023-05-14T12:41:57;5.88;;;3.83;;
20118;SDS011;10220;42.716;23.306;2023-05-14T12:44:26;4.85;;;3.10;;
20118;SDS011;10220;42.716;23.306;2023-05-14T12:46:52;5.50;;;4.03;;
20118;SDS011;10220;42.716;23.306;2023-05-14T12:49:17;5.25;;;3.67;;
20118;SDS011;10220;42.716;23.306;2023-05-14T12:51:43;6.20;;;4.47;;
20118;SDS011;10220;42.716;23.306;2023-05-14T12:54:10;7.32;;;4.28;;
20118;SDS011;10220;42.716;23.306;2023-05-14T12:56:36;5.55;;;4.43;;
20118;SDS011;10220;42.716;23.306;2023-05-14T12:59:03;5.40;;;3.90;;
20118;SDS011;10220;42.716;23.306;2023-05-14T13:01:35;8.38;;;5.05;;
20118;SDS011;10220;42.716;23.306;2023-05-14T13:04:05;7.78;;;4.38;;
20118;SDS011;10220;42.716;23.306;2023-05-14T13:06:30;3.63;;;3.30;;
20118;SDS011;10220;42.716;23.306;2023-05-14T13:09:14;6.88;;;3.72;;
20118;SDS011;10220;42.716;23.306;2023-05-14T13:11:52;11.70;;;3.92;;
20118;SDS011;10220;42.716;23.306;2023-05-14T13:14:18;8.10;;;5.50;;
20118;SDS011;10220;42.716;23.306;2023-05-14T13:20:08;6.60;;;3.88;;
20118;SDS011;10220;42.716;23.306;2023-05-14T13:22:34;9.63;;;5.03;;
20118;SDS011;10220;42.716;23.306;2023-05-14T13:25:00;5.20;;;4.38;;
20118;SDS011;10220;42.716;23.306;2023-05-14T13:27:25;8.70;;;4.10;;
20118;SDS011;10220;42.716;23.306;2023-05-14T13:29:54;9.68;;;5.15;;
20118;SDS011;10220;42.716;23.306;2023-05-14T13:32:19;7.50;;;4.15;;
20118;SDS011;10220;42.716;23.306;2023-05-14T13:34:44;7.88;;;5.32;;
20118;SDS011;10220;42.716;23.306;2023-05-14T13:37:10;9.02;;;5.78;;
20118;SDS011;10220;42.716;23.306;2023-05-14T13:39:35;9.13;;;4.47;;
20118;SDS011;10220;42.716;23.306;2023-05-14T13:42:01;12.35;;;4.60;;
20118;SDS011;10220;42.716;23.306;2023-05-14T13:44:26;7.38;;;4.85;;
20118;SDS011;10220;42.716;23.306;2023-05-14T13:46:52;8.75;;;5.97;;
20118;SDS011;10220;42.716;23.306;2023-05-14T13:49:17;8.23;;;5.68;;
20118;SDS011;10220;42.716;23.306;2023-05-14T13:51:43;9.90;;;4.35;;
20118;SDS011;10220;42.716;23.306;2023-05-14T13:54:08;10.02;;;5.53;;
20118;SDS011;10220;42.716;23.306;2023-05-14T13:56:34;7.03;;;4.60;;
20118;SDS011;10220;42.716;23.306;2023-05-14T14:02:19;9.20;;;6.85;;
20118;SDS011;10220;42.716;23.306;2023-05-14T14:04:48;9.25;;;6.40;;
20118;SDS011;10220;42.716;23.306;2023-05-14T14:07:20;5.53;;;3.95;;
20118;SDS011;10220;42.716;23.306;2023-05-14T14:13:14;5.30;;;4.63;;
20118;SDS011;10220;42.716;23.306;2023-05-14T14:15:42;6.38;;;5.10;;
20118;SDS011;10220;42.716;23.306;2023-05-14T14:18:13;8.02;;;5.00;;
20118;SDS011;10220;42.716;23.306;2023-05-14T14:20:39;6.70;;;4.18;;
20118;SDS011;10220;42.716;23.306;2023-05-14T14:23:05;6.60;;;5.10;;
20118;SDS011;10220;42.716;23.306;2023-05-14T14:25:40;7.63;;;4.53;;
20118;SDS011;10220;42.716;23.306;2023-05-14T14:28:05;7.00;;;4.50;;
20118;SDS011;10220;42.716;23.306;2023-05-14T14:33:52;6.43;;;4.47;;
20118;SDS011;10220;42.716;23.306;2023-05-14T14:36:18;5.55;;;3.97;;
20118;SDS011;10220;42.716;23.306;2023-05-14T14:38:43;10.30;;;4.95;;
20118;SDS011;10220;42.716;23.306;2023-05-14T14:41:10;9.15;;;5.72;;
20118;SDS011;10220;42.716;23.306;2023-05-14T14:43:37;8.32;;;5.93;;
20118;SDS011;10220;42.716;23.306;2023-05-14T14:46:04;11.50;;;6.22;;
20118;SDS011;10220;42.716;23.306;2023-05-14T14:48:31;8.98;;;6.10;;
20118;SDS011;10220;42.716;23.306;2023-05-14T14:51:02;10.02;;;6.63;;
20118;SDS011;10220;42.716;23.306;2023-05-14T14:53:29;8.30;;;6.18;;
20118;SDS011;10220;42.716;23.306;2023-05-14T14:55:55;9.18;;;5.85;;
20118;SDS011;10220;42.716;23.306;2023-05-14T14:58:21;8.02;;;5.40;;
20118;SDS011;10220;42.716;23.306;2023-05-14T15:00:56;10.07;;;6.88;;
20118;SDS011;10220;42.716;23.306;2023-05-14T15:03:22;8.23;;;5.45;;
20118;SDS011;10220;42.716;23.306;2023-05-14T15:05:49;10.23;;;6.10;;
20118;SDS011;10220;42.716;23.306;2023-05-14T15:08:15;9.88;;;6.53;;
20118;SDS011;10220;42.716;23.306;2023-05-14T15:10:41;8.45;;;4.80;;
20118;SDS011;10220;42.716;23.306;2023-05-14T15:13:08;10.32;;;6.45;;
20118;SDS011;10220;42.716;23.306;2023-05-14T15:15:34;9.63;;;6.28;;
20118;SDS011;10220;42.716;23.306;2023-05-14T15:18:00;8.25;;;5.07;;
20118;SDS011;10220;42.716;23.306;2023-05-14T15:20:26;9.82;;;6.20;;
20118;SDS011;10220;42.716;23.306;2023-05-14T15:22:53;13.27;;;7.57;;
20118;SDS011;10220;42.716;23.306;2023-05-14T15:25:22;10.43;;;5.63;;
20118;SDS011;10220;42.716;23.306;2023-05-14T15:27:51;10.27;;;6.13;;
20118;SDS011;10220;42.716;23.306;2023-05-14T15:30:19;12.70;;;7.72;;